sensor_id;sensor_type;location;lat;lon;timestamp;temperature;humidity
69009;SHT31;56065;52.472;13.380;2022-12-17T00:02:13;1.58;77.92
69009;SHT31;56065;52.472;13.380;2022-12-17T00:04:57;1.56;77.99
69009;SHT31;56065;52.472;13.380;2022-12-17T00:07:41;1.62;77.88
69009;SHT31;56065;52.472;13.380;2022-12-17T00:10:25;1.65;77.73
69009;SHT31;56065;52.472;13.380;2022-12-17T00:13:27;1.58;77.70
69009;SHT31;56065;52.472;13.380;2022-12-17T00:16:11;1.55;77.82
69009;SHT31;56065;52.472;13.380;2022-12-17T00:18:55;1.59;77.95
69009;SHT31;56065;52.472;13.380;2022-12-17T00:21:39;1.62;77.79
69009;SHT31;56065;52.472;13.380;2022-12-17T00:24:23;1.56;77.78
69009;SHT31;56065;52.472;13.380;2022-12-17T00:27:07;1.56;77.83
69009;SHT31;56065;52.472;13.380;2022-12-17T00:29:50;1.52;77.98
69009;SHT31;56065;52.472;13.380;2022-12-17T00:32:34;1.51;78.00
69009;SHT31;56065;52.472;13.380;2022-12-17T00:35:18;1.52;78.03
69009;SHT31;56065;52.472;13.380;2022-12-17T00:38:02;1.48;78.12
69009;SHT31;56065;52.472;13.380;2022-12-17T00:40:52;1.50;78.03
69009;SHT31;56065;52.472;13.380;2022-12-17T00:43:36;1.47;78.17
69009;SHT31;56065;52.472;13.380;2022-12-17T00:46:21;1.44;78.37
69009;SHT31;56065;52.472;13.380;2022-12-17T00:49:04;1.45;78.40
69009;SHT31;56065;52.472;13.380;2022-12-17T00:51:48;1.45;78.55
69009;SHT31;56065;52.472;13.380;2022-12-17T00:54:32;1.50;78.35
69009;SHT31;56065;52.472;13.380;2022-12-17T00:57:16;1.48;78.46
69009;SHT31;56065;52.472;13.380;2022-12-17T01:00:00;1.50;78.41
69009;SHT31;56065;52.472;13.380;2022-12-17T01:02:44;1.54;78.36
69009;SHT31;56065;52.472;13.380;2022-12-17T01:05:28;1.52;78.61
69009;SHT31;56065;52.472;13.380;2022-12-17T01:08:13;1.58;78.49
69009;SHT31;56065;52.472;13.380;2022-12-17T01:11:03;1.56;78.55
69009;SHT31;56065;52.472;13.380;2022-12-17T01:13:48;1.58;78.57
69009;SHT31;56065;52.472;13.380;2022-12-17T01:16:32;1.58;78.81
69009;SHT31;56065;52.472;13.380;2022-12-17T01:19:16;1.59;78.97
69009;SHT31;56065;52.472;13.380;2022-12-17T01:22:00;1.59;78.93
69009;SHT31;56065;52.472;13.380;2022-12-17T01:24:44;1.64;78.77
69009;SHT31;56065;52.472;13.380;2022-12-17T01:27:28;1.58;79.06
69009;SHT31;56065;52.472;13.380;2022-12-17T01:30:12;1.61;78.91
69009;SHT31;56065;52.472;13.380;2022-12-17T01:33:01;1.59;79.03
69009;SHT31;56065;52.472;13.380;2022-12-17T01:35:45;1.55;79.07
69009;SHT31;56065;52.472;13.380;2022-12-17T01:38:29;1.59;78.96
69009;SHT31;56065;52.472;13.380;2022-12-17T01:41:13;1.55;79.04
69009;SHT31;56065;52.472;13.380;2022-12-17T01:43:57;1.56;79.13
69009;SHT31;56065;52.472;13.380;2022-12-17T01:46:46;1.56;79.05
69009;SHT31;56065;52.472;13.380;2022-12-17T01:49:33;1.54;79.14
69009;SHT31;56065;52.472;13.380;2022-12-17T01:52:16;1.56;79.22
69009;SHT31;56065;52.472;13.380;2022-12-17T01:55:03;1.56;79.35
69009;SHT31;56065;52.472;13.380;2022-12-17T01:57:48;1.58;79.26
69009;SHT31;56065;52.472;13.380;2022-12-17T02:00:32;1.59;79.21
69009;SHT31;56065;52.472;13.380;2022-12-17T02:03:17;1.59;79.13
69009;SHT31;56065;52.472;13.380;2022-12-17T02:06:22;1.56;79.33
69009;SHT31;56065;52.472;13.380;2022-12-17T02:09:23;1.62;79.23
69009;SHT31;56065;52.472;13.380;2022-12-17T02:12:18;1.64;79.09
69009;SHT31;56065;52.472;13.380;2022-12-17T02:15:11;1.61;79.17
69009;SHT31;56065;52.472;13.380;2022-12-17T02:17:59;1.56;79.20
69009;SHT31;56065;52.472;13.380;2022-12-17T02:20:50;1.51;79.40
69009;SHT31;56065;52.472;13.380;2022-12-17T02:26:44;1.44;79.30
69009;SHT31;56065;52.472;13.380;2022-12-17T02:29:42;1.34;79.41
69009;SHT31;56065;52.472;13.380;2022-12-17T02:32:27;1.33;79.51
69009;SHT31;56065;52.472;13.380;2022-12-17T02:35:15;1.28;79.49
69009;SHT31;56065;52.472;13.380;2022-12-17T02:37:58;1.24;79.51
69009;SHT31;56065;52.472;13.380;2022-12-17T02:40:44;1.22;79.84
69009;SHT31;56065;52.472;13.380;2022-12-17T02:43:29;1.24;79.84
69009;SHT31;56065;52.472;13.380;2022-12-17T02:46:27;1.26;79.86
69009;SHT31;56065;52.472;13.380;2022-12-17T02:49:11;1.27;79.98
69009;SHT31;56065;52.472;13.380;2022-12-17T02:51:55;1.27;79.87
69009;SHT31;56065;52.472;13.380;2022-12-17T02:54:39;1.27;80.01
69009;SHT31;56065;52.472;13.380;2022-12-17T02:57:23;1.31;79.84
69009;SHT31;56065;52.472;13.380;2022-12-17T03:00:08;1.30;79.81
69009;SHT31;56065;52.472;13.380;2022-12-17T03:02:51;1.31;79.72
69009;SHT31;56065;52.472;13.380;2022-12-17T03:05:35;1.31;79.73
69009;SHT31;56065;52.472;13.380;2022-12-17T03:08:19;1.28;79.75
69009;SHT31;56065;52.472;13.380;2022-12-17T03:11:03;1.28;79.73
69009;SHT31;56065;52.472;13.380;2022-12-17T03:13:47;1.24;80.18
69009;SHT31;56065;52.472;13.380;2022-12-17T03:16:31;1.26;80.08
69009;SHT31;56065;52.472;13.380;2022-12-17T03:19:15;1.26;79.92
69009;SHT31;56065;52.472;13.380;2022-12-17T03:21:59;1.23;80.10
69009;SHT31;56065;52.472;13.380;2022-12-17T03:24:43;1.24;80.08
69009;SHT31;56065;52.472;13.380;2022-12-17T03:27:27;1.23;80.24
69009;SHT31;56065;52.472;13.380;2022-12-17T03:30:11;1.30;80.10
69009;SHT31;56065;52.472;13.380;2022-12-17T03:32:54;1.27;80.05
69009;SHT31;56065;52.472;13.380;2022-12-17T03:35:39;1.31;79.98
69009;SHT31;56065;52.472;13.380;2022-12-17T03:38:22;1.30;79.99
69009;SHT31;56065;52.472;13.380;2022-12-17T03:41:06;1.31;79.65
69009;SHT31;56065;52.472;13.380;2022-12-17T03:43:50;1.27;79.81
69009;SHT31;56065;52.472;13.380;2022-12-17T03:46:35;1.17;79.80
69009;SHT31;56065;52.472;13.380;2022-12-17T03:49:19;1.10;80.11
69009;SHT31;56065;52.472;13.380;2022-12-17T03:52:02;1.04;80.00
69009;SHT31;56065;52.472;13.380;2022-12-17T03:54:57;1.03;80.42
69009;SHT31;56065;52.472;13.380;2022-12-17T03:57:41;0.96;80.76
69009;SHT31;56065;52.472;13.380;2022-12-17T04:00:25;0.96;80.71
69009;SHT31;56065;52.472;13.380;2022-12-17T04:03:09;1.01;80.62
69009;SHT31;56065;52.472;13.380;2022-12-17T04:05:53;1.03;80.67
69009;SHT31;56065;52.472;13.380;2022-12-17T04:08:36;1.06;80.34
69009;SHT31;56065;52.472;13.380;2022-12-17T04:11:20;1.03;80.47
69009;SHT31;56065;52.472;13.380;2022-12-17T04:14:04;1.00;80.62
69009;SHT31;56065;52.472;13.380;2022-12-17T04:16:48;0.99;80.43
69009;SHT31;56065;52.472;13.380;2022-12-17T04:19:32;0.94;80.53
69009;SHT31;56065;52.472;13.380;2022-12-17T04:22:16;0.99;80.49
69009;SHT31;56065;52.472;13.380;2022-12-17T04:25:00;0.97;80.38
69009;SHT31;56065;52.472;13.380;2022-12-17T04:27:44;0.94;80.74
69009;SHT31;56065;52.472;13.380;2022-12-17T04:30:28;0.96;80.83
69009;SHT31;56065;52.472;13.380;2022-12-17T04:33:12;0.97;80.81
69009;SHT31;56065;52.472;13.380;2022-12-17T04:35:55;0.96;80.83
69009;SHT31;56065;52.472;13.380;2022-12-17T04:38:39;0.97;80.84
69009;SHT31;56065;52.472;13.380;2022-12-17T04:41:23;0.96;81.02
69009;SHT31;56065;52.472;13.380;2022-12-17T04:44:07;0.99;81.47
69009;SHT31;56065;52.472;13.380;2022-12-17T04:46:51;1.01;81.12
69009;SHT31;56065;52.472;13.380;2022-12-17T04:49:35;0.96;81.10
69009;SHT31;56065;52.472;13.380;2022-12-17T04:52:19;0.99;80.79
69009;SHT31;56065;52.472;13.380;2022-12-17T04:55:03;0.99;80.85
69009;SHT31;56065;52.472;13.380;2022-12-17T04:57:47;0.94;81.07
69009;SHT31;56065;52.472;13.380;2022-12-17T05:00:31;0.93;80.90
69009;SHT31;56065;52.472;13.380;2022-12-17T05:03:15;0.96;80.79
69009;SHT31;56065;52.472;13.380;2022-12-17T05:05:59;0.87;80.85
69009;SHT31;56065;52.472;13.380;2022-12-17T05:08:43;0.92;80.90
69009;SHT31;56065;52.472;13.380;2022-12-17T05:11:28;0.90;80.85
69009;SHT31;56065;52.472;13.380;2022-12-17T05:14:12;0.93;80.85
69009;SHT31;56065;52.472;13.380;2022-12-17T05:16:55;0.94;80.82
69009;SHT31;56065;52.472;13.380;2022-12-17T05:19:39;0.93;80.87
69009;SHT31;56065;52.472;13.380;2022-12-17T05:22:23;0.89;80.61
69009;SHT31;56065;52.472;13.380;2022-12-17T05:25:07;0.92;80.66
69009;SHT31;56065;52.472;13.380;2022-12-17T05:27:51;0.93;80.26
69009;SHT31;56065;52.472;13.380;2022-12-17T05:30:35;0.86;80.40
69009;SHT31;56065;52.472;13.380;2022-12-17T05:33:19;0.84;80.33
69009;SHT31;56065;52.472;13.380;2022-12-17T05:36:03;0.82;80.39
69009;SHT31;56065;52.472;13.380;2022-12-17T05:38:48;0.86;80.56
69009;SHT31;56065;52.472;13.380;2022-12-17T05:41:32;0.90;80.53
69009;SHT31;56065;52.472;13.380;2022-12-17T05:44:16;0.93;80.43
69009;SHT31;56065;52.472;13.380;2022-12-17T05:47:00;0.97;80.37
69009;SHT31;56065;52.472;13.380;2022-12-17T05:49:44;1.01;80.32
69009;SHT31;56065;52.472;13.380;2022-12-17T05:52:28;1.03;80.32
69009;SHT31;56065;52.472;13.380;2022-12-17T05:55:12;1.04;80.13
69009;SHT31;56065;52.472;13.380;2022-12-17T05:58:08;0.99;80.28
69009;SHT31;56065;52.472;13.380;2022-12-17T06:01:01;0.97;80.19
69009;SHT31;56065;52.472;13.380;2022-12-17T06:03:46;0.92;80.16
69009;SHT31;56065;52.472;13.380;2022-12-17T06:06:30;0.97;80.18
69009;SHT31;56065;52.472;13.380;2022-12-17T06:09:14;0.96;79.97
69009;SHT31;56065;52.472;13.380;2022-12-17T06:11:58;0.92;79.99
69009;SHT31;56065;52.472;13.380;2022-12-17T06:14:42;0.89;80.02
69009;SHT31;56065;52.472;13.380;2022-12-17T06:17:26;0.90;79.71
69009;SHT31;56065;52.472;13.380;2022-12-17T06:20:29;0.76;79.80
69009;SHT31;56065;52.472;13.380;2022-12-17T06:23:13;0.79;79.99
69009;SHT31;56065;52.472;13.380;2022-12-17T06:25:57;0.83;79.83
69009;SHT31;56065;52.472;13.380;2022-12-17T06:28:41;0.84;79.90
69009;SHT31;56065;52.472;13.380;2022-12-17T06:31:26;0.86;79.95
69009;SHT31;56065;52.472;13.380;2022-12-17T06:34:09;0.87;79.87
69009;SHT31;56065;52.472;13.380;2022-12-17T06:36:53;0.90;79.72
69009;SHT31;56065;52.472;13.380;2022-12-17T06:39:37;0.86;79.59
69009;SHT31;56065;52.472;13.380;2022-12-17T06:42:21;0.87;79.41
69009;SHT31;56065;52.472;13.380;2022-12-17T06:45:05;0.93;79.34
69009;SHT31;56065;52.472;13.380;2022-12-17T06:47:49;0.89;79.37
69009;SHT31;56065;52.472;13.380;2022-12-17T06:50:33;0.89;79.44
69009;SHT31;56065;52.472;13.380;2022-12-17T06:53:17;0.90;79.41
69009;SHT31;56065;52.472;13.380;2022-12-17T06:56:01;0.87;79.37
69009;SHT31;56065;52.472;13.380;2022-12-17T06:58:45;0.80;79.34
69009;SHT31;56065;52.472;13.380;2022-12-17T07:01:29;0.76;79.43
69009;SHT31;56065;52.472;13.380;2022-12-17T07:04:13;0.75;79.48
69009;SHT31;56065;52.472;13.380;2022-12-17T07:06:56;0.77;79.61
69009;SHT31;56065;52.472;13.380;2022-12-17T07:09:40;0.75;79.67
69009;SHT31;56065;52.472;13.380;2022-12-17T07:12:24;0.79;79.58
69009;SHT31;56065;52.472;13.380;2022-12-17T07:15:09;0.83;79.58
69009;SHT31;56065;52.472;13.380;2022-12-17T07:18:01;0.80;79.45
69009;SHT31;56065;52.472;13.380;2022-12-17T07:20:46;0.83;79.40
69009;SHT31;56065;52.472;13.380;2022-12-17T07:23:30;0.82;79.42
69009;SHT31;56065;52.472;13.380;2022-12-17T07:26:14;0.83;79.51
69009;SHT31;56065;52.472;13.380;2022-12-17T07:28:58;0.76;79.47
69009;SHT31;56065;52.472;13.380;2022-12-17T07:31:42;0.82;79.60
69009;SHT31;56065;52.472;13.380;2022-12-17T07:34:26;0.83;79.54
69009;SHT31;56065;52.472;13.380;2022-12-17T07:37:10;0.89;79.45
69009;SHT31;56065;52.472;13.380;2022-12-17T07:39:53;0.90;79.28
69009;SHT31;56065;52.472;13.380;2022-12-17T07:42:38;0.90;79.20
69009;SHT31;56065;52.472;13.380;2022-12-17T07:45:23;0.94;79.30
69009;SHT31;56065;52.472;13.380;2022-12-17T07:48:07;0.96;79.17
69009;SHT31;56065;52.472;13.380;2022-12-17T07:51:01;0.97;79.18
69009;SHT31;56065;52.472;13.380;2022-12-17T07:53:45;1.04;78.98
69009;SHT31;56065;52.472;13.380;2022-12-17T07:56:29;1.10;78.90
69009;SHT31;56065;52.472;13.380;2022-12-17T07:59:16;1.12;78.70
69009;SHT31;56065;52.472;13.380;2022-12-17T08:01:59;1.16;78.71
69009;SHT31;56065;52.472;13.380;2022-12-17T08:04:43;1.14;78.52
69009;SHT31;56065;52.472;13.380;2022-12-17T08:07:27;1.12;78.62
69009;SHT31;56065;52.472;13.380;2022-12-17T08:10:11;1.13;78.76
69009;SHT31;56065;52.472;13.380;2022-12-17T08:13:00;1.13;78.61
69009;SHT31;56065;52.472;13.380;2022-12-17T08:15:45;1.14;78.75
69009;SHT31;56065;52.472;13.380;2022-12-17T08:18:29;1.13;78.72
69009;SHT31;56065;52.472;13.380;2022-12-17T08:21:13;1.10;78.76
69009;SHT31;56065;52.472;13.380;2022-12-17T08:23:57;1.17;78.62
69009;SHT31;56065;52.472;13.380;2022-12-17T08:26:41;1.08;78.74
69009;SHT31;56065;52.472;13.380;2022-12-17T08:29:26;1.17;78.71
69009;SHT31;56065;52.472;13.380;2022-12-17T08:32:09;1.17;78.66
69009;SHT31;56065;52.472;13.380;2022-12-17T08:34:53;1.10;78.54
69009;SHT31;56065;52.472;13.380;2022-12-17T08:37:37;1.07;78.69
69009;SHT31;56065;52.472;13.380;2022-12-17T08:40:21;1.19;79.16
69009;SHT31;56065;52.472;13.380;2022-12-17T08:43:05;1.17;78.49
69009;SHT31;56065;52.472;13.380;2022-12-17T08:45:50;1.19;78.55
69009;SHT31;56065;52.472;13.380;2022-12-17T08:48:34;1.00;78.71
69009;SHT31;56065;52.472;13.380;2022-12-17T08:51:19;1.01;78.68
69009;SHT31;56065;52.472;13.380;2022-12-17T08:54:03;1.00;78.50
69009;SHT31;56065;52.472;13.380;2022-12-17T08:56:47;0.94;78.61
69009;SHT31;56065;52.472;13.380;2022-12-17T08:59:31;1.04;78.37
69009;SHT31;56065;52.472;13.380;2022-12-17T09:02:15;1.10;78.15
69009;SHT31;56065;52.472;13.380;2022-12-17T09:04:59;1.16;78.17
69009;SHT31;56065;52.472;13.380;2022-12-17T09:07:42;1.28;78.17
69009;SHT31;56065;52.472;13.380;2022-12-17T09:10:27;1.41;78.00
69009;SHT31;56065;52.472;13.380;2022-12-17T09:13:14;1.40;78.95
69009;SHT31;56065;52.472;13.380;2022-12-17T09:15:58;1.45;77.98
69009;SHT31;56065;52.472;13.380;2022-12-17T09:18:42;1.45;77.75
69009;SHT31;56065;52.472;13.380;2022-12-17T09:21:27;1.43;77.70
69009;SHT31;56065;52.472;13.380;2022-12-17T09:24:11;1.38;77.30
69009;SHT31;56065;52.472;13.380;2022-12-17T09:26:55;1.50;77.24
69009;SHT31;56065;52.472;13.380;2022-12-17T09:29:39;1.44;77.13
69009;SHT31;56065;52.472;13.380;2022-12-17T09:32:22;1.34;77.64
69009;SHT31;56065;52.472;13.380;2022-12-17T09:35:07;1.24;77.72
69009;SHT31;56065;52.472;13.380;2022-12-17T09:37:54;1.30;79.16
69009;SHT31;56065;52.472;13.380;2022-12-17T09:40:39;1.47;80.19
69009;SHT31;56065;52.472;13.380;2022-12-17T09:43:49;1.48;78.60
69009;SHT31;56065;52.472;13.380;2022-12-17T09:46:55;1.62;77.78
69009;SHT31;56065;52.472;13.380;2022-12-17T09:49:41;1.81;77.73
69009;SHT31;56065;52.472;13.380;2022-12-17T09:52:28;1.92;77.50
69009;SHT31;56065;52.472;13.380;2022-12-17T09:55:25;1.98;77.03
69009;SHT31;56065;52.472;13.380;2022-12-17T09:58:23;1.91;76.80
69009;SHT31;56065;52.472;13.380;2022-12-17T10:01:19;1.96;76.61
69009;SHT31;56065;52.472;13.380;2022-12-17T10:04:09;1.91;76.36
69009;SHT31;56065;52.472;13.380;2022-12-17T10:06:54;1.93;76.35
69009;SHT31;56065;52.472;13.380;2022-12-17T10:09:40;1.92;76.21
69009;SHT31;56065;52.472;13.380;2022-12-17T10:12:25;1.93;76.24
69009;SHT31;56065;52.472;13.380;2022-12-17T10:15:12;1.86;76.11
69009;SHT31;56065;52.472;13.380;2022-12-17T10:17:57;1.89;76.32
69009;SHT31;56065;52.472;13.380;2022-12-17T10:20:57;1.86;76.49
69009;SHT31;56065;52.472;13.380;2022-12-17T10:23:42;1.83;76.35
69009;SHT31;56065;52.472;13.380;2022-12-17T10:26:31;1.87;76.23
69009;SHT31;56065;52.472;13.380;2022-12-17T10:29:24;1.75;76.35
69009;SHT31;56065;52.472;13.380;2022-12-17T10:34:59;1.75;76.61
69009;SHT31;56065;52.472;13.380;2022-12-17T10:37:45;1.83;76.40
69009;SHT31;56065;52.472;13.380;2022-12-17T10:40:31;1.75;76.75
69009;SHT31;56065;52.472;13.380;2022-12-17T10:43:32;1.83;76.64
69009;SHT31;56065;52.472;13.380;2022-12-17T10:46:31;1.83;76.53
69009;SHT31;56065;52.472;13.380;2022-12-17T10:49:23;1.83;76.52
69009;SHT31;56065;52.472;13.380;2022-12-17T10:52:29;1.85;76.33
69009;SHT31;56065;52.472;13.380;2022-12-17T10:55:24;1.83;76.31
69009;SHT31;56065;52.472;13.380;2022-12-17T10:58:25;1.79;76.24
69009;SHT31;56065;52.472;13.380;2022-12-17T11:01:17;1.71;76.48
69009;SHT31;56065;52.472;13.380;2022-12-17T11:04:17;1.85;76.44
69009;SHT31;56065;52.472;13.380;2022-12-17T11:07:03;1.83;76.24
69009;SHT31;56065;52.472;13.380;2022-12-17T11:09:50;1.82;76.35
69009;SHT31;56065;52.472;13.380;2022-12-17T11:15:29;1.82;76.47
69009;SHT31;56065;52.472;13.380;2022-12-17T11:18:28;1.92;76.92
69009;SHT31;56065;52.472;13.380;2022-12-17T11:21:41;1.89;76.55
69009;SHT31;56065;52.472;13.380;2022-12-17T11:24:34;1.72;76.68
69009;SHT31;56065;52.472;13.380;2022-12-17T11:27:24;1.71;76.81
69009;SHT31;56065;52.472;13.380;2022-12-17T11:30:14;1.74;76.89
69009;SHT31;56065;52.472;13.380;2022-12-17T11:36:10;1.81;76.73
69009;SHT31;56065;52.472;13.380;2022-12-17T11:38:59;1.78;76.57
69009;SHT31;56065;52.472;13.380;2022-12-17T11:41:59;1.82;76.53
69009;SHT31;56065;52.472;13.380;2022-12-17T11:45:06;1.71;76.50
69009;SHT31;56065;52.472;13.380;2022-12-17T11:48:00;1.74;76.56
69009;SHT31;56065;52.472;13.380;2022-12-17T11:50:56;1.74;76.32
69009;SHT31;56065;52.472;13.380;2022-12-17T11:57:19;1.44;76.44
69009;SHT31;56065;52.472;13.380;2022-12-17T12:00:22;1.41;76.76
69009;SHT31;56065;52.472;13.380;2022-12-17T12:03:27;1.44;76.66
69009;SHT31;56065;52.472;13.380;2022-12-17T12:12:57;1.07;77.23
69009;SHT31;56065;52.472;13.380;2022-12-17T12:16:15;0.90;78.36
69009;SHT31;56065;52.472;13.380;2022-12-17T12:19:22;1.01;78.22
69009;SHT31;56065;52.472;13.380;2022-12-17T12:28:15;1.22;77.51
69009;SHT31;56065;52.472;13.380;2022-12-17T12:34:21;1.07;77.55
69009;SHT31;56065;52.472;13.380;2022-12-17T12:37:06;1.14;77.10
69009;SHT31;56065;52.472;13.380;2022-12-17T12:42:48;1.10;77.12
69009;SHT31;56065;52.472;13.380;2022-12-17T12:45:44;1.12;77.47
69009;SHT31;56065;52.472;13.380;2022-12-17T12:48:43;0.86;78.07
69009;SHT31;56065;52.472;13.380;2022-12-17T12:51:32;0.89;78.24
69009;SHT31;56065;52.472;13.380;2022-12-17T13:00:36;0.94;78.21
69009;SHT31;56065;52.472;13.380;2022-12-17T13:06:45;0.77;78.34
69009;SHT31;56065;52.472;13.380;2022-12-17T13:11:41;0.80;77.99
69009;SHT31;56065;52.472;13.380;2022-12-17T13:17:38;0.86;77.98
69009;SHT31;56065;52.472;13.380;2022-12-17T13:20:20;0.82;78.00
69009;SHT31;56065;52.472;13.380;2022-12-17T13:22:52;0.87;78.05
69009;SHT31;56065;52.472;13.380;2022-12-17T13:25:21;0.76;77.90
69009;SHT31;56065;52.472;13.380;2022-12-17T13:27:48;0.77;78.15
69009;SHT31;56065;52.472;13.380;2022-12-17T13:30:40;0.70;78.33
69009;SHT31;56065;52.472;13.380;2022-12-17T13:36:33;0.62;78.46
69009;SHT31;56065;52.472;13.380;2022-12-17T13:41:55;0.58;78.83
69009;SHT31;56065;52.472;13.380;2022-12-17T13:44:37;0.49;78.96
69009;SHT31;56065;52.472;13.380;2022-12-17T13:47:04;0.53;79.01
69009;SHT31;56065;52.472;13.380;2022-12-17T13:49:30;0.63;78.76
69009;SHT31;56065;52.472;13.380;2022-12-17T13:52:13;0.59;78.85
69009;SHT31;56065;52.472;13.380;2022-12-17T13:54:40;0.56;79.16
69009;SHT31;56065;52.472;13.380;2022-12-17T13:57:08;0.61;79.20
69009;SHT31;56065;52.472;13.380;2022-12-17T13:59:34;0.65;78.79
69009;SHT31;56065;52.472;13.380;2022-12-17T14:01:59;0.68;78.68
69009;SHT31;56065;52.472;13.380;2022-12-17T14:04:27;0.69;78.50
69009;SHT31;56065;52.472;13.380;2022-12-17T14:06:58;0.59;78.39
69009;SHT31;56065;52.472;13.380;2022-12-17T14:09:32;0.62;78.39
69009;SHT31;56065;52.472;13.380;2022-12-17T14:12:02;0.65;78.35
69009;SHT31;56065;52.472;13.380;2022-12-17T14:14:46;0.53;78.54
69009;SHT31;56065;52.472;13.380;2022-12-17T14:17:27;0.37;78.87
69009;SHT31;56065;52.472;13.380;2022-12-17T14:20:04;0.28;79.49
69009;SHT31;56065;52.472;13.380;2022-12-17T14:23:00;0.40;79.22
69009;SHT31;56065;52.472;13.380;2022-12-17T14:25:33;0.26;79.53
69009;SHT31;56065;52.472;13.380;2022-12-17T14:28:21;0.29;79.25
69009;SHT31;56065;52.472;13.380;2022-12-17T14:30:47;0.15;79.47
69009;SHT31;56065;52.472;13.380;2022-12-17T14:33:40;0.14;79.60
69009;SHT31;56065;52.472;13.380;2022-12-17T14:36:08;0.15;79.75
69009;SHT31;56065;52.472;13.380;2022-12-17T14:38:47;0.19;79.22
69009;SHT31;56065;52.472;13.380;2022-12-17T14:41:14;0.17;79.17
69009;SHT31;56065;52.472;13.380;2022-12-17T14:43:59;0.05;79.80
69009;SHT31;56065;52.472;13.380;2022-12-17T14:46:27;0.08;79.98
69009;SHT31;56065;52.472;13.380;2022-12-17T14:48:57;0.19;79.35
69009;SHT31;56065;52.472;13.380;2022-12-17T14:51:35;0.15;79.42
69009;SHT31;56065;52.472;13.380;2022-12-17T14:57:17;0.14;79.28
69009;SHT31;56065;52.472;13.380;2022-12-17T14:59:47;0.12;79.14
69009;SHT31;56065;52.472;13.380;2022-12-17T15:02:35;0.10;79.07
69009;SHT31;56065;52.472;13.380;2022-12-17T15:05:15;0.04;78.82
69009;SHT31;56065;52.472;13.380;2022-12-17T15:08:25;-0.06;79.48
69009;SHT31;56065;52.472;13.380;2022-12-17T15:14:07;-0.20;79.87
69009;SHT31;56065;52.472;13.380;2022-12-17T15:19:46;-0.23;80.44
69009;SHT31;56065;52.472;13.380;2022-12-17T15:22:16;-0.36;80.72
69009;SHT31;56065;52.472;13.380;2022-12-17T15:24:47;-0.40;81.24
69009;SHT31;56065;52.472;13.380;2022-12-17T15:27:15;-0.41;81.37
69009;SHT31;56065;52.472;13.380;2022-12-17T15:29:41;-0.42;81.50
69009;SHT31;56065;52.472;13.380;2022-12-17T15:32:21;-0.28;80.96
69009;SHT31;56065;52.472;13.380;2022-12-17T15:35:26;-0.38;81.10
69009;SHT31;56065;52.472;13.380;2022-12-17T15:37:58;-0.37;81.45
69009;SHT31;56065;52.472;13.380;2022-12-17T15:40:37;-0.77;81.73
69009;SHT31;56065;52.472;13.380;2022-12-17T15:43:15;-0.92;82.61
69009;SHT31;56065;52.472;13.380;2022-12-17T15:45:43;-0.72;82.06
69009;SHT31;56065;52.472;13.380;2022-12-17T15:48:12;-0.75;82.03
69009;SHT31;56065;52.472;13.380;2022-12-17T15:50:38;-0.54;81.65
69009;SHT31;56065;52.472;13.380;2022-12-17T15:53:04;-0.40;81.26
69009;SHT31;56065;52.472;13.380;2022-12-17T15:55:30;-0.34;81.02
69009;SHT31;56065;52.472;13.380;2022-12-17T15:57:55;-0.28;80.98
69009;SHT31;56065;52.472;13.380;2022-12-17T16:00:21;-0.37;80.87
69009;SHT31;56065;52.472;13.380;2022-12-17T16:02:47;-0.57;81.54
69009;SHT31;56065;52.472;13.380;2022-12-17T16:05:13;-0.47;81.41
69009;SHT31;56065;52.472;13.380;2022-12-17T16:07:38;-0.47;81.28
69009;SHT31;56065;52.472;13.380;2022-12-17T16:10:05;-0.38;81.06
69009;SHT31;56065;52.472;13.380;2022-12-17T16:12:31;-0.42;81.34
69009;SHT31;56065;52.472;13.380;2022-12-17T16:14:56;-0.41;81.32
69009;SHT31;56065;52.472;13.380;2022-12-17T16:17:22;-0.34;81.16
69009;SHT31;56065;52.472;13.380;2022-12-17T16:19:47;-0.30;80.76
69009;SHT31;56065;52.472;13.380;2022-12-17T16:22:12;-0.24;80.73
69009;SHT31;56065;52.472;13.380;2022-12-17T16:24:38;-0.14;80.61
69009;SHT31;56065;52.472;13.380;2022-12-17T16:27:05;-0.09;80.46
69009;SHT31;56065;52.472;13.380;2022-12-17T16:29:30;-0.16;80.32
69009;SHT31;56065;52.472;13.380;2022-12-17T16:31:56;-0.07;80.29
69009;SHT31;56065;52.472;13.380;2022-12-17T16:34:21;-0.06;80.19
69009;SHT31;56065;52.472;13.380;2022-12-17T16:36:46;-0.06;80.29
69009;SHT31;56065;52.472;13.380;2022-12-17T16:39:16;-0.14;80.48
69009;SHT31;56065;52.472;13.380;2022-12-17T16:41:42;-0.13;80.31
69009;SHT31;56065;52.472;13.380;2022-12-17T16:44:08;-0.34;80.64
69009;SHT31;56065;52.472;13.380;2022-12-17T16:46:35;-0.36;80.78
69009;SHT31;56065;52.472;13.380;2022-12-17T16:51:29;-0.37;81.42
69009;SHT31;56065;52.472;13.380;2022-12-17T16:53:56;-0.67;81.42
69009;SHT31;56065;52.472;13.380;2022-12-17T16:56:24;-0.82;81.99
69009;SHT31;56065;52.472;13.380;2022-12-17T16:58:50;-0.78;81.78
69009;SHT31;56065;52.472;13.380;2022-12-17T17:01:23;-0.61;81.31
69009;SHT31;56065;52.472;13.380;2022-12-17T17:03:49;-0.58;81.20
69009;SHT31;56065;52.472;13.380;2022-12-17T17:06:15;-0.57;81.15
69009;SHT31;56065;52.472;13.380;2022-12-17T17:08:41;-0.69;81.85
69009;SHT31;56065;52.472;13.380;2022-12-17T17:11:11;-0.67;81.72
69009;SHT31;56065;52.472;13.380;2022-12-17T17:13:41;-0.53;81.21
69009;SHT31;56065;52.472;13.380;2022-12-17T17:16:10;-0.61;81.07
69009;SHT31;56065;52.472;13.380;2022-12-17T17:18:36;-0.69;81.54
69009;SHT31;56065;52.472;13.380;2022-12-17T17:23:50;-0.88;81.93
69009;SHT31;56065;52.472;13.380;2022-12-17T17:26:16;-0.93;81.92
69009;SHT31;56065;52.472;13.380;2022-12-17T17:28:43;-0.84;81.95
69009;SHT31;56065;52.472;13.380;2022-12-17T17:31:11;-1.02;82.13
69009;SHT31;56065;52.472;13.380;2022-12-17T17:33:39;-1.08;82.19
69009;SHT31;56065;52.472;13.380;2022-12-17T17:36:06;-1.00;82.35
69009;SHT31;56065;52.472;13.380;2022-12-17T17:38:33;-0.89;81.92
69009;SHT31;56065;52.472;13.380;2022-12-17T17:40:59;-0.99;82.13
69009;SHT31;56065;52.472;13.380;2022-12-17T17:43:25;-1.32;82.34
69009;SHT31;56065;52.472;13.380;2022-12-17T17:45:50;-1.25;82.42
69009;SHT31;56065;52.472;13.380;2022-12-17T17:48:17;-1.32;82.53
69009;SHT31;56065;52.472;13.380;2022-12-17T17:50:42;-1.35;82.73
69009;SHT31;56065;52.472;13.380;2022-12-17T17:53:07;-1.56;83.16
69009;SHT31;56065;52.472;13.380;2022-12-17T17:55:34;-1.42;83.11
69009;SHT31;56065;52.472;13.380;2022-12-17T17:57:59;-1.50;83.04
69009;SHT31;56065;52.472;13.380;2022-12-17T18:00:24;-1.49;82.94
69009;SHT31;56065;52.472;13.380;2022-12-17T18:02:50;-1.57;83.63
69009;SHT31;56065;52.472;13.380;2022-12-17T18:05:15;-1.43;82.94
69009;SHT31;56065;52.472;13.380;2022-12-17T18:07:40;-1.36;82.44
69009;SHT31;56065;52.472;13.380;2022-12-17T18:10:06;-1.44;82.66
69009;SHT31;56065;52.472;13.380;2022-12-17T18:12:32;-1.46;82.36